Time;durP1;ratioP1;P1;durP2;ratioP2;P2;SDS_P1;SDS_P2;PMS_P1;PMS_P2;Temp;Humidity;BMP_temperature;BMP_pressure;BME280_temperature;BME280_humidity;BME280_pressure;Samples;Min_cycle;Max_cycle;Signal;HPM_P1;HPM_P2
2022/05/15 00:02:27;;;;;;;3.93;1.00;;;;;;;14.13;55.93;98841.00;4988442;28;20229;-66
2022/05/15 00:04:55;;;;;;;2.50;1.23;;;;;;;14.19;56.22;98838.72;4984264;28;20193;-66
2022/05/15 00:07:42;;;;;;;2.43;1.20;;;;;;;14.14;56.30;98834.78;4980150;28;20214;-66
2022/05/15 00:10:09;;;;;;;2.93;1.40;;;;;;;14.10;55.87;98833.47;4981895;28;20280;-66
2022/05/15 00:12:36;;;;;;;2.83;1.20;;;;;;;14.18;55.07;98830.00;4972576;28;20232;-66
2022/05/15 00:15:03;;;;;;;4.40;1.27;;;;;;;14.16;56.32;98824.94;4984649;28;21153;-66
2022/05/15 00:17:29;;;;;;;4.77;1.50;;;;;;;14.24;55.74;98821.44;4983529;28;20203;-66
2022/05/15 00:19:56;;;;;;;2.23;1.00;;;;;;;14.26;54.39;98822.09;4965092;28;20775;-66
2022/05/15 00:22:23;;;;;;;5.27;1.40;;;;;;;14.25;55.71;98809.94;4986237;28;20271;-65
2022/05/15 00:25:10;;;;;;;3.60;1.40;;;;;;;14.31;55.91;98805.81;4986267;28;20346;-65
2022/05/15 00:27:37;;;;;;;4.60;1.50;;;;;;;14.34;54.02;98808.09;4981510;28;20740;-65
2022/05/15 00:30:04;;;;;;;6.50;1.27;;;;;;;14.30;54.95;98809.47;4980642;28;20224;-64
2022/05/15 00:32:50;;;;;;;2.20;1.20;;;;;;;14.37;57.07;98813.00;4982877;28;20298;-64
2022/05/15 00:35:18;;;;;;;2.27;1.07;;;;;;;14.25;56.81;98807.31;4962385;28;20256;-64
2022/05/15 00:37:45;;;;;;;3.97;1.40;;;;;;;14.21;56.24;98805.22;4986623;28;20349;-68
2022/05/15 00:40:14;;;;;;;3.07;1.33;;;;;;;14.16;56.33;98800.47;4982050;28;20216;-67
2022/05/15 00:42:41;;;;;;;4.07;1.60;;;;;;;14.11;56.40;98802.78;4967342;28;20228;-66
2022/05/15 00:45:09;;;;;;;3.70;1.30;;;;;;;14.03;56.76;98804.44;4969735;28;20198;-67
2022/05/15 00:47:36;;;;;;;5.40;1.50;;;;;;;14.02;56.85;98805.44;4971724;28;20218;-67
2022/05/15 00:50:07;;;;;;;2.27;1.17;;;;;;;13.97;56.57;98804.31;4985195;28;20591;-66
2022/05/15 00:52:37;;;;;;;2.63;1.47;;;;;;;13.99;56.23;98800.53;4981790;28;20337;-67
2022/05/15 00:55:08;;;;;;;4.70;1.20;;;;;;;14.02;55.23;98802.81;4963472;28;20271;-66
2022/05/15 00:57:43;;;;;;;3.43;1.17;;;;;;;14.04;57.16;98807.91;4971949;28;20204;-66
2022/05/15 01:00:13;;;;;;;2.23;1.10;;;;;;;13.98;57.44;98805.94;4981012;28;20206;-67
2022/05/15 01:02:42;;;;;;;3.60;1.30;;;;;;;13.93;57.94;98810.88;4985664;28;20222;-66
2022/05/15 01:05:12;;;;;;;3.43;1.47;;;;;;;13.87;57.05;98807.94;4962672;28;20230;-66
2022/05/15 01:07:39;;;;;;;3.73;1.30;;;;;;;13.87;56.58;98807.09;4968404;28;20209;-66
2022/05/15 01:10:08;;;;;;;4.37;1.27;;;;;;;13.87;56.70;98800.06;4968682;28;20705;-66
2022/05/15 01:12:41;;;;;;;2.57;1.37;;;;;;;13.89;58.35;98807.75;4959965;28;20646;-67
2022/05/15 01:15:19;;;;;;;2.73;1.20;;;;;;;13.85;58.75;98802.03;4985513;28;20193;-66
2022/05/15 01:17:46;;;;;;;3.43;1.43;;;;;;;13.79;59.17;98799.25;4969569;28;20239;-66
2022/05/15 01:20:20;;;;;;;3.00;1.40;;;;;;;13.77;59.08;98796.81;4984430;28;20202;-67
2022/05/15 01:22:52;;;;;;;4.27;1.33;;;;;;;13.69;58.85;98805.53;4961860;28;20709;-66
2022/05/15 01:25:22;;;;;;;2.70;1.30;;;;;;;13.63;59.82;98803.56;4965123;28;20201;-66
2022/05/15 01:27:53;;;;;;;5.50;1.47;;;;;;;13.58;59.78;98804.06;4970824;28;20207;-67
2022/05/15 01:30:21;;;;;;;5.90;1.50;;;;;;;13.56;60.59;98807.84;4958762;28;20197;-67
2022/05/15 01:32:48;;;;;;;4.27;1.13;;;;;;;13.52;61.05;98804.72;4961104;28;20242;-66
2022/05/15 01:35:17;;;;;;;4.70;1.27;;;;;;;13.51;59.09;98808.31;4967950;28;20208;-67
2022/05/15 01:37:44;;;;;;;1.93;1.17;;;;;;;13.52;58.96;98801.28;4964502;28;20208;-67
2022/05/15 01:40:14;;;;;;;3.90;1.17;;;;;;;13.49;59.86;98799.78;4958793;28;20256;-66
2022/05/15 01:42:41;;;;;;;4.00;1.30;;;;;;;13.45;58.69;98800.31;4961423;28;20252;-67
2022/05/15 01:45:10;;;;;;;2.33;1.30;;;;;;;13.41;59.13;98807.63;4966643;28;20219;-65
2022/05/15 01:47:37;;;;;;;4.07;1.40;;;;;;;13.41;60.23;98805.00;4963307;28;20220;-68
2022/05/15 01:50:07;;;;;;;3.43;1.30;;;;;;;13.35;59.02;98796.00;4963076;28;20630;-66
2022/05/15 01:52:35;;;;;;;2.70;1.37;;;;;;;13.32;58.69;98801.59;4967639;28;20228;-67
2022/05/15 01:55:02;;;;;;;6.07;0.93;;;;;;;13.30;57.62;98800.94;4966892;28;20207;-67
2022/05/15 01:57:31;;;;;;;2.43;1.30;;;;;;;13.28;56.56;98797.66;4963307;28;21478;-67
2022/05/15 01:59:59;;;;;;;4.43;1.30;;;;;;;13.25;56.44;98800.59;4967092;28;20205;-67
2022/05/15 02:02:45;;;;;;;1.77;0.80;;;;;;;13.27;55.54;98794.19;4986635;28;20235;-66
2022/05/15 02:05:12;;;;;;;5.23;1.07;;;;;;;13.26;55.72;98794.38;4968043;28;20208;-67
2022/05/15 02:07:40;;;;;;;2.10;1.00;;;;;;;13.22;56.11;98801.75;4964674;28;20215;-66
2022/05/15 02:10:08;;;;;;;7.07;1.00;;;;;;;13.23;56.31;98792.09;4983346;28;20199;-66
2022/05/15 02:12:37;;;;;;;2.30;1.17;;;;;;;13.22;55.96;98793.91;4968522;28;20315;-66
2022/05/15 02:15:06;;;;;;;1.90;1.00;;;;;;;13.22;57.82;98779.97;4962980;28;20201;-66
2022/05/15 02:17:33;;;;;;;3.53;1.10;;;;;;;13.20;57.40;98784.53;4984170;28;20279;-66
2022/05/15 02:20:00;;;;;;;6.37;1.33;;;;;;;13.22;58.04;98782.59;4984130;28;20260;-66
2022/05/15 02:22:27;;;;;;;3.67;1.30;;;;;;;13.28;56.75;98784.53;4967201;28;20299;-66
2022/05/15 02:24:55;;;;;;;4.60;1.40;;;;;;;13.22;57.54;98780.78;4964210;28;20205;-66
2022/05/15 02:27:22;;;;;;;3.83;1.20;;;;;;;13.17;57.22;98783.09;4987385;28;20196;-67
2022/05/15 02:29:50;;;;;;;2.13;1.27;;;;;;;13.13;56.85;98774.72;4966931;28;20227;-67
2022/05/15 02:32:17;;;;;;;3.00;1.30;;;;;;;13.18;57.24;98783.88;4958582;28;20462;-67
2022/05/15 02:34:44;;;;;;;2.37;1.00;;;;;;;13.20;56.62;98769.66;4971059;28;20284;-66
2022/05/15 02:37:11;;;;;;;4.40;1.23;;;;;;;13.15;58.06;98774.56;4960921;28;20226;-66
2022/05/15 02:39:38;;;;;;;3.50;1.10;;;;;;;13.09;56.56;98776.03;4969565;28;21137;-67
2022/05/15 02:42:06;;;;;;;5.70;1.20;;;;;;;13.11;55.01;98770.63;4983095;28;20225;-67
2022/05/15 02:44:33;;;;;;;6.93;1.27;;;;;;;13.04;54.46;98767.81;4963957;28;20216;-65
2022/05/15 02:47:20;;;;;;;3.97;1.00;;;;;;;12.97;54.24;98770.28;4987693;28;20319;-66
2022/05/15 02:52:32;;;;;;;2.37;1.17;;;;;;;12.95;55.17;98767.03;4968608;28;20839;-66
2022/05/15 02:54:58;;;;;;;3.33;1.00;;;;;;;12.98;54.98;98769.31;4982453;28;20196;-66
2022/05/15 02:57:26;;;;;;;2.30;0.90;;;;;;;12.96;55.58;98778.31;4983804;28;20204;-66
2022/05/15 02:59:53;;;;;;;2.67;0.95;;;;;;;12.91;55.91;98770.94;4984144;28;20789;-66
2022/05/15 03:02:21;;;;;;;3.10;1.00;;;;;;;12.85;57.01;98775.00;4964328;28;20228;-66
2022/05/15 03:04:49;;;;;;;1.60;0.83;;;;;;;12.87;56.93;98774.03;4964809;28;20268;-66
2022/05/15 03:07:16;;;;;;;3.03;0.87;;;;;;;12.88;55.96;98776.50;4966067;28;20978;-66
2022/05/15 03:09:46;;;;;;;4.60;1.10;;;;;;;12.88;59.12;98783.53;4962823;28;20210;-65
2022/05/15 03:12:13;;;;;;;3.50;1.20;;;;;;;12.82;60.27;98791.06;4989013;28;20329;-67
2022/05/15 03:14:40;;;;;;;3.67;1.00;;;;;;;12.77;59.22;98782.84;4987544;28;20260;-66
2022/05/15 03:17:06;;;;;;;5.03;1.33;;;;;;;12.70;60.66;98787.13;4970856;28;20215;-66
2022/05/15 03:19:35;;;;;;;4.53;1.10;;;;;;;12.63;58.77;98776.47;4964701;28;20765;-66
2022/05/15 03:22:02;;;;;;;2.47;1.00;;;;;;;12.62;57.03;98780.06;4968961;28;20256;-66
2022/05/15 03:24:29;;;;;;;4.20;1.10;;;;;;;12.61;58.61;98788.91;4970230;28;20212;-67
2022/05/15 03:26:58;;;;;;;4.10;0.77;;;;;;;12.55;57.97;98782.50;4970736;28;20204;-66
2022/05/15 03:29:25;;;;;;;2.83;1.10;;;;;;;12.51;57.57;98783.81;4966983;28;20876;-67
2022/05/15 03:31:52;;;;;;;4.60;1.10;;;;;;;12.49;57.22;98783.16;4979895;28;20216;-65
2022/05/15 03:34:19;;;;;;;2.83;1.07;;;;;;;12.45;57.18;98776.59;4980606;28;20647;-67
2022/05/15 03:36:51;;;;;;;4.67;0.90;;;;;;;12.46;57.97;98783.47;4963997;28;20328;-67
2022/05/15 03:39:19;;;;;;;3.67;1.10;;;;;;;12.42;57.58;98783.94;4967913;28;20219;-67
2022/05/15 03:41:47;;;;;;;3.57;1.00;;;;;;;12.40;59.62;98792.75;4961196;28;20243;-67
2022/05/15 03:44:14;;;;;;;4.63;0.80;;;;;;;12.37;60.18;98787.03;4968157;28;20201;-67
2022/05/15 03:46:43;;;;;;;4.43;1.93;;;;;;;12.31;60.51;98782.44;4966650;28;20197;-66
2022/05/15 03:49:13;;;;;;;3.93;1.10;;;;;;;12.30;61.42;98780.78;4957046;28;20698;-67
2022/05/15 03:51:42;;;;;;;1.43;0.80;;;;;;;12.23;62.21;98778.81;4983783;28;20675;-71
2022/05/15 03:54:10;;;;;;;3.90;0.90;;;;;;;12.20;63.87;98780.91;4968389;28;20231;-67
2022/05/15 03:56:51;;;;;;;3.43;1.10;;;;;;;12.15;62.88;98770.91;4967351;28;20693;-66
2022/05/15 03:59:22;;;;;;;3.50;1.10;;;;;;;12.22;62.24;98766.69;4985410;28;20307;-66
2022/05/15 04:01:50;;;;;;;3.87;1.10;;;;;;;12.18;62.56;98761.94;4970953;28;20241;-66
2022/05/15 04:04:17;;;;;;;4.57;1.10;;;;;;;12.24;62.81;98756.88;4992527;28;20203;-67
2022/05/15 04:06:45;;;;;;;5.33;1.13;;;;;;;12.28;63.66;98756.56;4984585;28;20200;-66
2022/05/15 04:09:14;;;;;;;4.50;1.00;;;;;;;12.29;62.39;98759.00;4987865;28;20210;-66
2022/05/15 04:11:41;;;;;;;4.07;1.00;;;;;;;12.42;59.75;98748.09;4991103;28;20211;-66
2022/05/15 04:14:08;;;;;;;3.73;0.83;;;;;;;12.48;59.50;98746.63;4986355;28;20206;-67
2022/05/15 04:16:36;;;;;;;3.47;1.17;;;;;;;12.61;58.59;98749.63;4981648;28;20204;-67
2022/05/15 04:19:04;;;;;;;4.40;0.90;;;;;;;12.77;58.11;98753.25;4983649;28;20225;-66
2022/05/15 04:21:36;;;;;;;4.73;0.90;;;;;;;12.89;57.49;98758.97;4968790;28;20310;-66
2022/05/15 04:24:05;;;;;;;3.30;1.27;;;;;;;13.02;57.50;98761.13;4967235;28;20262;-66
2022/05/15 04:26:35;;;;;;;6.10;1.00;;;;;;;13.09;58.59;98759.50;4965725;28;20738;-66
2022/05/15 04:29:02;;;;;;;3.70;1.20;;;;;;;13.22;60.48;98772.09;4963959;28;20307;-67
2022/05/15 04:31:30;;;;;;;4.70;1.10;;;;;;;13.19;60.75;98773.25;4989426;28;20252;-66
2022/05/15 04:33:57;;;;;;;2.97;1.00;;;;;;;13.17;61.02;98777.00;4986966;28;20776;-66
2022/05/15 04:36:24;;;;;;;2.60;1.17;;;;;;;13.11;60.50;98776.69;4985479;28;21117;-66
2022/05/15 04:38:51;;;;;;;3.23;1.20;;;;;;;13.08;61.77;98771.75;4982560;28;20363;-66
2022/05/15 04:41:38;;;;;;;3.90;1.10;;;;;;;13.02;61.78;98774.22;4982569;28;20236;-66
2022/05/15 04:44:06;;;;;;;2.70;0.93;;;;;;;12.98;63.12;98779.78;4980572;28;20201;-67
2022/05/15 04:46:32;;;;;;;2.90;1.10;;;;;;;12.96;63.29;98783.53;4970971;28;20664;-66
2022/05/15 04:49:02;;;;;;;2.87;1.30;;;;;;;12.92;63.98;98787.47;4967231;28;20747;-66
2022/05/15 04:51:29;;;;;;;3.77;1.30;;;;;;;12.88;65.36;98786.16;4979788;28;20217;-66
2022/05/15 04:53:57;;;;;;;4.77;1.50;;;;;;;12.84;66.05;98793.53;4981368;28;20204;-66
2022/05/15 04:56:25;;;;;;;3.73;1.33;;;;;;;12.80;65.99;98790.41;4967978;28;20227;-67
2022/05/15 04:58:53;;;;;;;3.60;1.87;;;;;;;12.80;66.17;98789.59;4981431;28;20803;-67
2022/05/15 05:01:24;;;;;;;3.43;1.57;;;;;;;12.82;66.85;98795.50;4980773;28;20469;-67
2022/05/15 05:04:11;;;;;;;3.17;1.40;;;;;;;12.75;67.69;98790.06;4981251;28;20238;-66
2022/05/15 05:06:37;;;;;;;1.97;1.30;;;;;;;12.80;67.60;98789.59;4993219;28;20275;-65
2022/05/15 05:09:22;;;;;;;3.97;1.30;;;;;;;12.78;67.81;98794.16;4985277;28;20382;-65
2022/05/15 05:11:49;;;;;;;4.93;1.30;;;;;;;12.77;68.85;98793.34;4983319;28;20764;-65
2022/05/15 05:14:19;;;;;;;2.33;1.77;;;;;;;12.76;70.21;98796.13;4989683;28;20668;-65
2022/05/15 05:16:45;;;;;;;3.80;1.13;;;;;;;12.74;69.33;98798.91;4982771;28;20201;-65
2022/05/15 05:19:13;;;;;;;2.53;1.30;;;;;;;12.72;70.92;98800.84;4968593;28;20205;-65
2022/05/15 05:21:40;;;;;;;3.00;1.37;;;;;;;12.72;70.19;98807.91;4980334;28;20595;-65
2022/05/15 05:24:08;;;;;;;7.23;1.50;;;;;;;12.72;70.62;98803.47;4989894;28;20588;-65
2022/05/15 05:26:35;;;;;;;2.60;1.37;;;;;;;12.77;70.53;98800.38;4983274;28;20325;-65
2022/05/15 05:29:01;;;;;;;3.37;1.20;;;;;;;12.77;71.09;98795.16;4996220;28;20619;-64
2022/05/15 05:31:30;;;;;;;3.50;1.23;;;;;;;12.81;69.88;98791.22;4982191;28;20233;-64
2022/05/15 05:33:57;;;;;;;5.30;1.27;;;;;;;12.88;68.76;98794.84;4983529;28;20224;-64
2022/05/15 05:36:24;;;;;;;1.90;1.10;;;;;;;12.95;70.54;98789.75;4988752;28;20196;-64
2022/05/15 05:38:52;;;;;;;8.03;1.63;;;;;;;13.08;70.04;98791.94;4984772;28;20203;-64
2022/05/15 05:41:19;;;;;;;3.77;1.40;;;;;;;13.16;70.17;98798.97;4985529;28;20228;-64
2022/05/15 05:43:47;;;;;;;4.87;1.40;;;;;;;13.26;70.94;98802.25;4981894;28;20204;-64
2022/05/15 05:46:14;;;;;;;8.30;1.60;;;;;;;13.35;70.67;98790.78;4967849;28;20200;-64
2022/05/15 05:48:45;;;;;;;2.00;1.33;;;;;;;13.48;69.03;98798.16;4984638;28;20278;-64
2022/05/15 05:51:13;;;;;;;3.13;1.40;;;;;;;13.62;69.51;98803.72;4983291;28;20203;-64
2022/05/15 05:53:40;;;;;;;5.57;1.53;;;;;;;13.74;69.05;98807.63;4981627;28;20200;-64
2022/05/15 05:56:07;;;;;;;4.63;1.97;;;;;;;13.95;68.26;98812.34;4981937;28;20839;-64
2022/05/15 05:58:35;;;;;;;3.87;2.57;;;;;;;14.19;65.58;98813.25;4972359;28;20232;-65
2022/05/15 06:01:02;;;;;;;2.60;1.80;;;;;;;14.42;65.49;98817.78;4988945;28;20198;-66
2022/05/15 06:06:14;;;;;;;6.53;2.80;;;;;;;14.71;63.96;98834.75;4983074;28;20715;-65
2022/05/15 06:08:42;;;;;;;5.10;2.90;;;;;;;14.72;63.73;98831.13;4987721;28;20205;-65
2022/05/15 06:11:09;;;;;;;4.87;2.60;;;;;;;14.78;65.27;98833.06;4973192;28;20324;-65
2022/05/15 06:13:36;;;;;;;7.07;3.53;;;;;;;14.73;64.57;98832.75;4984779;28;20196;-65
2022/05/15 06:16:03;;;;;;;4.57;2.40;;;;;;;14.97;63.73;98823.91;4983761;28;20202;-65
2022/05/15 06:18:30;;;;;;;4.67;2.73;;;;;;;15.14;61.22;98827.22;4970699;28;20889;-66
2022/05/15 06:20:57;;;;;;;6.20;3.10;;;;;;;15.22;62.01;98825.53;4990371;28;20204;-66
2022/05/15 06:23:25;;;;;;;7.80;3.23;;;;;;;15.44;60.63;98835.22;4986738;28;20306;-66
2022/05/15 06:25:52;;;;;;;6.93;3.40;;;;;;;15.43;60.70;98825.69;4983319;28;20214;-66
2022/05/15 06:28:19;;;;;;;6.20;2.73;;;;;;;15.73;60.80;98830.19;4982932;28;20569;-66
2022/05/15 06:30:46;;;;;;;5.83;3.20;;;;;;;15.92;59.97;98824.44;4968798;28;20224;-66
2022/05/15 06:33:14;;;;;;;5.37;2.93;;;;;;;16.07;59.52;98837.59;4979256;28;20968;-66
2022/05/15 06:35:40;;;;;;;4.10;3.03;;;;;;;16.20;58.50;98828.25;4979208;28;20213;-66
2022/05/15 06:38:08;;;;;;;6.50;2.70;;;;;;;16.37;59.57;98828.91;4987126;28;20196;-66
2022/05/15 06:40:36;;;;;;;8.73;2.80;;;;;;;16.46;59.91;98827.78;4983578;28;20202;-66
2022/05/15 06:43:03;;;;;;;9.03;2.17;;;;;;;16.62;60.33;98829.41;4987470;28;21101;-66
2022/05/15 06:45:31;;;;;;;5.43;2.77;;;;;;;16.72;58.27;98821.19;4988221;28;20202;-66
2022/05/15 06:47:58;;;;;;;7.77;2.87;;;;;;;16.75;58.87;98823.44;4983319;28;20210;-66
2022/05/15 06:50:25;;;;;;;3.80;2.93;;;;;;;16.87;56.78;98821.16;4966497;28;20210;-66
2022/05/15 06:52:51;;;;;;;4.37;2.43;;;;;;;17.02;57.37;98825.56;4983866;28;21193;-66
2022/05/15 06:55:21;;;;;;;5.33;2.43;;;;;;;17.04;57.33;98815.66;4990121;28;20202;-66
2022/05/15 06:57:50;;;;;;;4.90;2.40;;;;;;;17.04;59.66;98818.28;4984075;28;20262;-66
2022/05/15 07:00:19;;;;;;;6.37;2.77;;;;;;;17.19;59.38;98819.03;4991409;28;20200;-66
2022/05/15 07:02:47;;;;;;;3.73;2.20;;;;;;;17.37;59.20;98817.78;4988862;28;20247;-66
2022/05/15 07:05:16;;;;;;;5.23;2.13;;;;;;;17.52;58.34;98821.16;4988501;28;20664;-66
2022/05/15 07:07:44;;;;;;;8.13;2.97;;;;;;;17.56;56.28;98825.03;4986786;28;20203;-66
2022/05/15 07:10:11;;;;;;;6.17;3.47;;;;;;;17.71;54.19;98822.28;4990614;28;20201;-66
2022/05/15 07:12:38;;;;;;;9.10;3.60;;;;;;;17.68;55.23;98821.88;4995225;28;20215;-66
2022/05/15 07:15:08;;;;;;;5.93;3.53;;;;;;;17.72;55.64;98820.47;4992107;28;20202;-66
2022/05/15 07:17:35;;;;;;;5.33;3.20;;;;;;;17.68;54.62;98827.97;4985629;28;20277;-66
2022/05/15 07:20:04;;;;;;;4.90;3.23;;;;;;;17.65;53.56;98828.34;4972676;28;20211;-66
2022/05/15 07:22:31;;;;;;;5.10;2.93;;;;;;;17.53;54.73;98829.88;4974436;28;20354;-66
2022/05/15 07:24:59;;;;;;;4.93;3.23;;;;;;;17.53;53.33;98829.88;4985836;28;20297;-67
2022/05/15 07:27:27;;;;;;;5.00;2.90;;;;;;;17.51;53.26;98827.44;4993182;28;20456;-67
2022/05/15 07:29:53;;;;;;;4.20;3.00;;;;;;;17.43;53.35;98824.13;4986998;28;20198;-66
2022/05/15 07:32:21;;;;;;;6.70;4.10;;;;;;;17.66;54.37;98829.16;4984836;28;20234;-67
2022/05/15 07:34:49;;;;;;;9.47;3.17;;;;;;;17.74;53.78;98826.38;4994768;28;20280;-66
2022/05/15 07:37:17;;;;;;;5.23;3.30;;;;;;;17.75;54.77;98825.38;4972418;28;20261;-66
2022/05/15 07:39:44;;;;;;;7.60;4.03;;;;;;;17.79;54.65;98826.63;4980735;28;20203;-67
2022/05/15 07:42:11;;;;;;;7.27;4.00;;;;;;;17.75;55.70;98827.19;4982420;28;20219;-67
2022/05/15 07:44:38;;;;;;;6.20;3.47;;;;;;;17.87;55.26;98830.94;4982640;28;20199;-66
2022/05/15 07:47:06;;;;;;;7.80;3.90;;;;;;;17.95;55.02;98820.22;4973956;28;20929;-65
2022/05/15 07:49:35;;;;;;;6.47;3.63;;;;;;;18.05;55.75;98822.53;4987664;28;20579;-66
2022/05/15 07:52:02;;;;;;;4.37;3.37;;;;;;;18.12;55.39;98822.56;4986201;28;20239;-66
2022/05/15 07:54:30;;;;;;;5.83;3.70;;;;;;;18.28;56.37;98816.97;4991040;28;20279;-66
2022/05/15 07:56:56;;;;;;;5.77;4.10;;;;;;;18.41;54.63;98818.03;4993215;28;20204;-66
2022/05/15 07:59:24;;;;;;;5.00;3.80;;;;;;;18.51;54.57;98815.03;4984708;28;20203;-66
2022/05/15 08:01:54;;;;;;;5.63;3.70;;;;;;;18.55;54.03;98816.25;4971344;28;20240;-66
2022/05/15 08:04:21;;;;;;;6.20;3.87;;;;;;;18.49;53.75;98812.59;4995809;28;20226;-66
2022/05/15 08:09:35;;;;;;;6.83;3.70;;;;;;;18.71;53.28;98815.91;4990981;28;20199;-67
2022/05/15 08:12:02;;;;;;;6.13;3.47;;;;;;;18.74;53.75;98815.50;4985275;28;20225;-66
2022/05/15 08:14:29;;;;;;;5.23;2.93;;;;;;;18.76;52.92;98817.94;4985752;28;20193;-66
2022/05/15 08:16:56;;;;;;;4.50;3.10;;;;;;;18.86;53.25;98813.09;4972914;28;20211;-66
2022/05/15 08:24:53;;;;;;;4.93;2.97;;;;;;;19.02;52.86;98822.53;4988518;28;20239;-67
2022/05/15 08:27:20;;;;;;;7.80;3.27;;;;;;;19.15;51.96;98818.25;4965120;28;20581;-66
2022/05/15 08:29:47;;;;;;;4.40;3.30;;;;;;;19.20;52.48;98822.94;4993613;28;20207;-67
2022/05/15 08:32:14;;;;;;;5.40;2.97;;;;;;;19.27;53.00;98824.56;4988344;28;20226;-67
2022/05/15 08:34:41;;;;;;;4.50;3.13;;;;;;;19.34;53.01;98816.66;4973666;28;20206;-67
2022/05/15 08:37:10;;;;;;;4.93;3.00;;;;;;;19.38;53.25;98820.50;4986127;28;21637;-67
2022/05/15 08:39:37;;;;;;;5.73;2.90;;;;;;;19.58;53.27;98819.69;4983079;28;20201;-65
2022/05/15 08:42:17;;;;;;;6.43;2.60;;;;;;;19.71;52.55;98814.38;4983124;28;20263;-66
2022/05/15 08:44:46;;;;;;;3.80;3.10;;;;;;;19.80;51.91;98814.16;4979143;28;20204;-67
2022/05/15 08:47:18;;;;;;;6.20;2.80;;;;;;;19.74;50.98;98813.97;4987784;28;20225;-66
2022/05/15 08:49:49;;;;;;;4.47;2.43;;;;;;;19.85;50.77;98819.66;4976752;28;20245;-66
2022/05/15 08:52:24;;;;;;;3.83;2.10;;;;;;;19.99;50.65;98817.84;4993427;28;20216;-67
2022/05/15 08:54:56;;;;;;;6.70;2.93;;;;;;;20.16;49.17;98824.28;4985075;28;20311;-67
2022/05/15 08:57:32;;;;;;;3.43;2.27;;;;;;;20.16;48.78;98816.34;4971922;28;20216;-68
2022/05/15 09:00:01;;;;;;;4.30;1.90;;;;;;;20.07;49.22;98822.91;4960693;28;20211;-66
2022/05/15 09:02:29;;;;;;;5.17;2.20;;;;;;;20.21;47.39;98821.03;4986796;28;20297;-69
2022/05/15 09:04:56;;;;;;;4.37;2.20;;;;;;;20.38;48.41;98818.72;4965871;28;20208;-67
2022/05/15 09:07:40;;;;;;;3.07;2.00;;;;;;;20.31;48.01;98812.63;4966647;28;20266;-66
2022/05/15 09:10:19;;;;;;;5.43;2.33;;;;;;;20.34;48.72;98812.19;4983661;28;20588;-67
2022/05/15 09:12:57;;;;;;;5.97;2.10;;;;;;;20.44;50.80;98812.56;4983230;28;20221;-66
2022/05/15 09:15:29;;;;;;;5.43;2.40;;;;;;;20.44;49.71;98806.47;4981904;28;20215;-66
2022/05/15 09:18:01;;;;;;;5.87;2.20;;;;;;;20.46;49.91;98807.06;4983473;28;20279;-67
2022/05/15 09:20:47;;;;;;;2.47;2.00;;;;;;;20.65;50.23;98814.13;4987696;28;20203;-67
2022/05/15 09:23:21;;;;;;;4.03;2.00;;;;;;;20.83;51.37;98806.50;4980917;28;20222;-66
2022/05/15 09:25:55;;;;;;;4.23;2.23;;;;;;;21.01;47.85;98805.75;4988932;28;20205;-66
2022/05/15 09:28:23;;;;;;;5.87;2.00;;;;;;;21.08;48.16;98798.56;4981961;28;20289;-66
2022/05/15 09:30:52;;;;;;;3.27;2.20;;;;;;;21.05;48.45;98802.47;4990121;28;20223;-66
2022/05/15 09:33:26;;;;;;;7.13;2.00;;;;;;;21.28;48.18;98803.72;4983731;28;20208;-66
2022/05/15 09:36:17;;;;;;;4.93;2.07;;;;;;;21.41;48.23;98808.13;4986526;28;20248;-66
2022/05/15 09:39:06;;;;;;;3.93;2.30;;;;;;;21.56;48.56;98804.31;4965506;28;20207;-65
2022/05/15 09:44:46;;;;;;;4.37;2.17;;;;;;;21.83;47.57;98796.94;4975043;28;20240;-67
2022/05/15 09:47:23;;;;;;;4.70;2.70;;;;;;;21.81;50.25;98793.69;4986337;28;20204;-67
2022/05/15 09:49:51;;;;;;;6.90;2.30;;;;;;;21.80;48.83;98784.09;4989382;28;20198;-66
2022/05/15 09:52:22;;;;;;;9.57;2.30;;;;;;;21.87;48.14;98779.50;4966394;28;20223;-66
2022/05/15 09:54:51;;;;;;;4.30;2.13;;;;;;;21.88;49.06;98783.78;4967002;28;20216;-66
2022/05/15 09:57:22;;;;;;;2.03;1.83;;;;;;;22.04;48.90;98778.94;4982891;28;20565;-67
2022/05/15 09:59:58;;;;;;;3.90;2.30;;;;;;;22.14;49.08;98778.41;4991869;28;20289;-67
2022/05/15 10:02:46;;;;;;;5.27;2.00;;;;;;;22.33;48.67;98776.50;4987667;28;20221;-67
2022/05/15 10:05:20;;;;;;;3.93;1.70;;;;;;;22.41;47.90;98766.41;4982887;28;20309;-67
2022/05/15 10:07:58;;;;;;;3.47;2.20;;;;;;;22.58;48.06;98765.78;4987439;28;20267;-67
2022/05/15 10:10:33;;;;;;;3.17;1.83;;;;;;;22.80;47.57;98758.09;4963641;28;20265;-66
2022/05/15 10:13:07;;;;;;;6.40;2.23;;;;;;;22.91;45.81;98755.69;4980342;28;20222;-66
2022/05/15 10:15:39;;;;;;;3.30;2.30;;;;;;;22.77;46.31;98750.56;4968247;28;20234;-66
2022/05/15 10:18:11;;;;;;;4.50;1.83;;;;;;;23.02;45.82;98751.44;4963992;28;20669;-66
2022/05/15 10:20:58;;;;;;;5.07;1.80;;;;;;;23.04;45.30;98750.16;4987789;28;20401;-67
2022/05/15 10:23:29;;;;;;;6.17;2.40;;;;;;;23.08;45.29;98748.66;4988993;28;20703;-70
2022/05/15 10:26:01;;;;;;;4.10;1.90;;;;;;;23.29;46.39;98735.88;4977906;28;20215;-67
2022/05/15 10:28:39;;;;;;;3.30;1.90;;;;;;;23.52;45.14;98737.72;4981146;28;20202;-67
2022/05/15 10:31:12;;;;;;;3.47;1.83;;;;;;;23.69;44.22;98737.78;4986951;28;20198;-66
2022/05/15 10:33:42;;;;;;;4.83;1.63;;;;;;;23.66;43.82;98738.25;4990304;28;20195;-67
2022/05/15 10:36:21;;;;;;;3.17;2.30;;;;;;;23.95;44.08;98732.16;4972491;28;20238;-67
2022/05/15 10:38:58;;;;;;;3.43;1.90;;;;;;;24.08;44.72;98726.59;4968957;28;20204;-66
2022/05/15 10:41:35;;;;;;;5.63;2.07;;;;;;;24.13;42.21;98717.91;4989660;28;20223;-67
2022/05/15 10:44:20;;;;;;;3.97;1.77;;;;;;;24.16;42.80;98720.88;4995995;28;20201;-67
2022/05/15 10:46:51;;;;;;;3.47;1.70;;;;;;;24.34;42.28;98724.41;4981190;28;20692;-67
2022/05/15 10:49:34;;;;;;;4.43;1.97;;;;;;;24.35;42.27;98717.25;4988322;28;20884;-67
2022/05/15 10:52:10;;;;;;;7.03;2.17;;;;;;;24.42;41.32;98713.38;4976233;28;20235;-67
2022/05/15 10:57:43;;;;;;;5.20;2.00;;;;;;;24.55;41.47;98712.25;4974462;28;20774;-66
2022/05/15 11:00:19;;;;;;;4.73;1.70;;;;;;;24.67;41.51;98709.53;4992685;28;20255;-66
2022/05/15 11:03:16;;;;;;;5.80;2.10;;;;;;;24.82;39.93;98706.31;4992549;28;20226;-66
2022/05/15 11:05:53;;;;;;;2.93;1.63;;;;;;;24.80;39.62;98695.06;4980381;28;20271;-66
2022/05/15 11:08:35;;;;;;;3.00;1.87;;;;;;;24.95;39.64;98696.38;4990557;28;20258;-66
2022/05/15 11:11:10;;;;;;;3.80;2.07;;;;;;;25.00;40.85;98691.91;4988475;28;20208;-66
2022/05/15 11:13:49;;;;;;;4.63;1.90;;;;;;;25.14;39.52;98691.56;4988403;28;20200;-66
2022/05/15 11:16:25;;;;;;;4.00;1.83;;;;;;;25.13;40.28;98692.63;4990929;28;20202;-66
2022/05/15 11:19:06;;;;;;;6.73;2.23;;;;;;;25.19;38.70;98687.13;4979257;28;20201;-66
2022/05/15 11:21:41;;;;;;;3.80;1.80;;;;;;;25.14;38.84;98680.88;4975209;28;20640;-67
2022/05/15 11:24:14;;;;;;;4.40;1.87;;;;;;;25.14;39.20;98679.03;4982897;28;20264;-66
2022/05/15 11:26:46;;;;;;;2.53;1.73;;;;;;;25.37;41.18;98676.38;4983171;28;20214;-67
2022/05/15 11:29:18;;;;;;;3.30;1.53;;;;;;;25.63;39.42;98686.38;4983869;28;20233;-66
2022/05/15 11:31:47;;;;;;;2.97;2.07;;;;;;;25.65;38.78;98667.41;4981244;28;20596;-66
2022/05/15 11:35:06;;;;;;;5.17;1.50;;;;;;;25.65;38.75;98667.41;4986783;28;21146;-66
2022/05/15 11:37:45;;;;;;;6.70;2.07;;;;;;;25.85;38.21;98676.72;4986896;28;20201;-66
2022/05/15 11:40:29;;;;;;;7.20;1.80;;;;;;;25.63;37.98;98673.03;4984067;28;20200;-66
2022/05/15 11:44:03;;;;;;;3.13;2.10;;;;;;;25.83;38.78;98665.47;4984220;28;20230;-66
2022/05/15 11:47:19;;;;;;;4.77;2.10;;;;;;;25.73;36.39;98675.00;4974907;28;20709;-65
2022/05/15 11:50:03;;;;;;;3.23;1.90;;;;;;;25.96;37.15;98662.41;4964536;28;20617;-65
2022/05/15 11:52:40;;;;;;;4.73;1.80;;;;;;;25.96;36.96;98661.63;4974078;28;20298;-66
2022/05/15 11:55:40;;;;;;;5.83;2.57;;;;;;;25.93;37.80;98660.25;4990243;28;20664;-65
2022/05/15 11:58:41;;;;;;;7.93;2.03;;;;;;;26.11;36.73;98659.09;4990547;28;20202;-64
2022/05/15 12:01:15;;;;;;;6.67;2.13;;;;;;;26.09;36.60;98637.94;4988517;28;20639;-65
2022/05/15 12:03:50;;;;;;;5.97;2.20;;;;;;;26.21;37.24;98645.84;4984324;28;20786;-65
2022/05/15 12:06:18;;;;;;;5.80;2.10;;;;;;;26.34;37.44;98644.63;4986235;28;20205;-65
2022/05/15 12:08:52;;;;;;;4.75;2.13;;;;;;;26.35;35.79;98645.44;4981227;28;20226;-65
2022/05/15 12:11:33;;;;;;;5.23;1.90;;;;;;;26.30;37.45;98643.53;4987171;28;20620;-65
2022/05/15 12:14:28;;;;;;;4.07;2.20;;;;;;;26.42;36.16;98635.31;4987276;28;20209;-65